Time;durP1;ratioP1;P1;durP2;ratioP2;P2;SDS_P1;SDS_P2;PMS_P1;PMS_P2;Temp;Humidity;BMP_temperature;BMP_pressure;BME280_temperature;BME280_humidity;BME280_pressure;Samples;Min_cycle;Max_cycle;Signal;HPM_P1;HPM_P2
2023/03/28 00:01:53;;;;;;;100.82;5.60;;;;;;;;;;4988044;28;20034;-59
2023/03/28 00:04:21;;;;;;;117.60;6.20;;;;;;;;;;4989942;28;20574;-58
2023/03/28 00:06:47;;;;;;;106.78;5.82;;;;;;;;;;4988463;28;20062;-59
2023/03/28 00:09:12;;;;;;;103.65;5.45;;;;;;;;;;4987010;28;20114;-58
2023/03/28 00:11:37;;;;;;;110.10;5.55;;;;;;;;;;4987692;28;20062;-58
2023/03/28 00:14:04;;;;;;;102.40;5.75;;;;;;;;;;4987068;28;20050;-59
2023/03/28 00:16:30;;;;;;;126.40;6.15;;;;;;;;;;4988007;28;20789;-59
2023/03/28 00:18:59;;;;;;;94.43;5.40;;;;;;;;;;4989498;28;20917;-58
2023/03/28 00:21:26;;;;;;;102.75;6.03;;;;;;;;;;4986950;28;20520;-58
2023/03/28 00:23:56;;;;;;;92.60;5.53;;;;;;;;;;4997023;28;20730;-58
2023/03/28 00:26:23;;;;;;;121.95;6.55;;;;;;;;;;4987606;28;20099;-58
2023/03/28 00:28:48;;;;;;;135.18;6.40;;;;;;;;;;4987910;28;20035;-58
2023/03/28 00:31:14;;;;;;;101.38;6.03;;;;;;;;;;4987467;28;20034;-58
2023/03/28 00:33:40;;;;;;;86.63;5.00;;;;;;;;;;4988656;28;20649;-58
2023/03/28 00:36:09;;;;;;;106.07;6.03;;;;;;;;;;4988355;28;20057;-58
2023/03/28 00:38:34;;;;;;;105.28;5.38;;;;;;;;;;4987611;28;20033;-57
2023/03/28 00:41:00;;;;;;;122.57;6.65;;;;;;;;;;4987988;28;20046;-59
2023/03/28 00:43:44;;;;;;;100.87;5.77;;;;;;;;;;4986189;28;20014;-58
2023/03/28 00:46:31;;;;;;;118.78;6.18;;;;;;;;;;4987417;28;21038;-57
2023/03/28 00:49:16;;;;;;;108.15;5.80;;;;;;;;;;4987160;28;20060;-57
2023/03/28 00:51:44;;;;;;;120.28;5.78;;;;;;;;;;4986888;28;20033;-57
2023/03/28 00:54:11;;;;;;;110.85;6.25;;;;;;;;;;4989942;28;20034;-59
2023/03/28 00:56:38;;;;;;;102.75;5.72;;;;;;;;;;4986879;28;20042;-59
2023/03/28 00:59:10;;;;;;;82.97;5.15;;;;;;;;;;4987558;28;20026;-59
2023/03/28 01:01:35;;;;;;;157.13;7.82;;;;;;;;;;4988732;28;20042;-57
2023/03/28 01:04:01;;;;;;;96.28;5.47;;;;;;;;;;4986723;28;20041;-57
2023/03/28 01:06:28;;;;;;;95.15;5.55;;;;;;;;;;4988168;28;20034;-58
2023/03/28 01:08:54;;;;;;;110.80;5.80;;;;;;;;;;4988695;28;20049;-58
2023/03/28 01:11:20;;;;;;;119.47;6.00;;;;;;;;;;4986293;28;20808;-57
2023/03/28 01:13:48;;;;;;;124.35;6.35;;;;;;;;;;4987404;28;20026;-58
2023/03/28 01:16:14;;;;;;;102.78;5.78;;;;;;;;;;4986969;28;20884;-59
2023/03/28 01:18:45;;;;;;;95.30;5.63;;;;;;;;;;4987747;28;20022;-58
2023/03/28 01:21:23;;;;;;;95.45;5.60;;;;;;;;;;4987208;28;20045;-58
2023/03/28 01:24:07;;;;;;;92.43;5.88;;;;;;;;;;4986945;28;20492;-58
2023/03/28 01:26:47;;;;;;;102.28;5.60;;;;;;;;;;4985762;28;20128;-60
2023/03/28 01:29:25;;;;;;;93.28;5.35;;;;;;;;;;4986181;28;20025;-57
2023/03/28 01:32:09;;;;;;;104.40;5.57;;;;;;;;;;4988632;28;20038;-58
2023/03/28 01:34:40;;;;;;;113.18;5.97;;;;;;;;;;4985977;28;20030;-59
2023/03/28 01:37:13;;;;;;;105.53;5.88;;;;;;;;;;4985563;28;20046;-58
2023/03/28 01:40:05;;;;;;;106.82;6.45;;;;;;;;;;4987763;28;20106;-57
2023/03/28 01:42:42;;;;;;;124.70;6.93;;;;;;;;;;4984675;28;20546;-58
2023/03/28 01:45:13;;;;;;;92.45;5.60;;;;;;;;;;4985821;28;20029;-59
2023/03/28 01:47:40;;;;;;;110.63;6.13;;;;;;;;;;4989577;28;20072;-58
2023/03/28 01:50:17;;;;;;;112.25;6.60;;;;;;;;;;4988308;28;20069;-59
2023/03/28 01:52:55;;;;;;;115.85;6.57;;;;;;;;;;4986217;28;20030;-58
2023/03/28 01:55:39;;;;;;;104.82;6.20;;;;;;;;;;4986927;28;20017;-57
2023/03/28 01:58:04;;;;;;;99.97;6.18;;;;;;;;;;4995227;28;20022;-58
2023/03/28 02:00:31;;;;;;;112.93;6.37;;;;;;;;;;4988020;28;20515;-60
2023/03/28 02:03:10;;;;;;;154.23;7.65;;;;;;;;;;4986118;28;20304;-58
2023/03/28 02:05:37;;;;;;;92.18;5.88;;;;;;;;;;4986546;28;20594;-57
2023/03/28 02:08:04;;;;;;;142.25;7.57;;;;;;;;;;4987381;28;20977;-57
2023/03/28 02:10:30;;;;;;;106.65;6.47;;;;;;;;;;4986664;28;20089;-57
2023/03/28 02:13:01;;;;;;;103.20;6.03;;;;;;;;;;4987290;28;20061;-59
2023/03/28 02:15:27;;;;;;;114.57;6.55;;;;;;;;;;4988122;28;20898;-57
2023/03/28 02:17:55;;;;;;;114.05;6.50;;;;;;;;;;4986640;28;20033;-58
2023/03/28 02:20:23;;;;;;;140.88;7.45;;;;;;;;;;4985495;28;20144;-59
2023/03/28 02:22:55;;;;;;;98.55;5.70;;;;;;;;;;4990876;28;20032;-59
2023/03/28 02:25:20;;;;;;;128.10;7.20;;;;;;;;;;4989977;28;20046;-59
2023/03/28 02:27:47;;;;;;;120.72;6.38;;;;;;;;;;4989561;28;20129;-57
2023/03/28 02:30:12;;;;;;;90.90;5.88;;;;;;;;;;4991116;28;20078;-58
2023/03/28 02:32:38;;;;;;;122.13;7.22;;;;;;;;;;4990764;28;20076;-59
2023/03/28 02:35:04;;;;;;;71.05;5.05;;;;;;;;;;4992208;28;20148;-59
2023/03/28 02:37:48;;;;;;;99.53;6.68;;;;;;;;;;4990858;28;20046;-58
2023/03/28 02:40:32;;;;;;;104.75;6.72;;;;;;;;;;4991074;28;20030;-58
2023/03/28 02:43:16;;;;;;;112.10;7.13;;;;;;;;;;4989810;28;20029;-57
2023/03/28 02:45:44;;;;;;;97.15;6.38;;;;;;;;;;4989104;28;20229;-58
2023/03/28 02:48:20;;;;;;;101.22;6.60;;;;;;;;;;4990854;28;20801;-58
2023/03/28 02:51:08;;;;;;;104.93;6.78;;;;;;;;;;4990415;28;20045;-57
2023/03/28 02:53:33;;;;;;;111.78;7.07;;;;;;;;;;4987048;28;20108;-57
2023/03/28 02:56:04;;;;;;;120.53;7.33;;;;;;;;;;4987799;28;20039;-57
2023/03/28 02:58:29;;;;;;;116.95;7.22;;;;;;;;;;4989354;28;20253;-58
2023/03/28 03:00:56;;;;;;;104.83;7.57;;;;;;;;;;4989331;28;20033;-58
2023/03/28 03:03:22;;;;;;;107.85;7.45;;;;;;;;;;4988888;28;20320;-59
2023/03/28 03:05:47;;;;;;;81.63;5.57;;;;;;;;;;4988252;28;20258;-57
2023/03/28 03:08:13;;;;;;;108.55;6.95;;;;;;;;;;4991192;28;20032;-57
2023/03/28 03:10:38;;;;;;;84.53;6.55;;;;;;;;;;4989980;28;20057;-59
2023/03/28 03:13:04;;;;;;;95.65;6.50;;;;;;;;;;4990785;28;20401;-58
2023/03/28 03:15:29;;;;;;;149.55;7.63;;;;;;;;;;4990250;28;20029;-59
2023/03/28 03:17:55;;;;;;;111.78;7.90;;;;;;;;;;4989512;28;20037;-59
2023/03/28 03:20:21;;;;;;;105.18;8.43;;;;;;;;;;4988427;28;20022;-59
2023/03/28 03:22:46;;;;;;;112.93;6.80;;;;;;;;;;4987970;28;20113;-60
2023/03/28 03:25:12;;;;;;;105.47;7.22;;;;;;;;;;4989791;28;20037;-58
2023/03/28 03:27:39;;;;;;;109.47;7.20;;;;;;;;;;4988331;28;20097;-58
2023/03/28 03:30:05;;;;;;;92.53;6.68;;;;;;;;;;4990317;28;20030;-59
2023/03/28 03:32:31;;;;;;;92.82;6.85;;;;;;;;;;4990511;28;20445;-60
2023/03/28 03:34:57;;;;;;;140.07;8.90;;;;;;;;;;4987830;28;20049;-58
2023/03/28 03:37:22;;;;;;;92.63;6.72;;;;;;;;;;4990558;28;20034;-60
2023/03/28 03:39:48;;;;;;;97.30;7.13;;;;;;;;;;4990043;28;20030;-59
2023/03/28 03:42:13;;;;;;;108.75;5.97;;;;;;;;;;4987738;28;20033;-59
2023/03/28 03:44:38;;;;;;;86.88;7.03;;;;;;;;;;4990427;28;20033;-59
2023/03/28 03:47:04;;;;;;;111.03;7.68;;;;;;;;;;4988751;28;20523;-57
2023/03/28 03:49:29;;;;;;;103.53;6.95;;;;;;;;;;4990809;28;20036;-58
2023/03/28 03:51:54;;;;;;;97.10;6.72;;;;;;;;;;4989753;28;20036;-57
2023/03/28 03:54:19;;;;;;;135.57;9.13;;;;;;;;;;4988482;28;20031;-58
2023/03/28 03:56:45;;;;;;;99.05;7.43;;;;;;;;;;4990300;28;20516;-58
2023/03/28 03:59:10;;;;;;;99.68;7.63;;;;;;;;;;4987524;28;20022;-58
2023/03/28 04:01:38;;;;;;;142.23;8.50;;;;;;;;;;4988635;28;20047;-57
2023/03/28 04:04:04;;;;;;;116.40;8.05;;;;;;;;;;4989489;28;20617;-59
2023/03/28 04:06:29;;;;;;;114.60;7.20;;;;;;;;;;4989216;28;20031;-57
2023/03/28 04:08:55;;;;;;;114.22;7.68;;;;;;;;;;4988573;28;20089;-58
2023/03/28 04:11:20;;;;;;;134.50;9.23;;;;;;;;;;4987307;28;20049;-59
2023/03/28 04:13:45;;;;;;;126.80;7.10;;;;;;;;;;4987114;28;20444;-59
2023/03/28 04:16:12;;;;;;;118.78;8.30;;;;;;;;;;4988423;28;20104;-59
2023/03/28 04:18:37;;;;;;;108.40;8.15;;;;;;;;;;4988270;28;20092;-59
2023/03/28 04:21:03;;;;;;;122.07;8.25;;;;;;;;;;4987398;28;20525;-57
2023/03/28 04:23:28;;;;;;;106.32;7.00;;;;;;;;;;4989339;28;20926;-59
2023/03/28 04:25:56;;;;;;;108.78;7.93;;;;;;;;;;4988454;28;20046;-59
2023/03/28 04:28:26;;;;;;;111.25;7.88;;;;;;;;;;4988169;28;20057;-59
2023/03/28 04:30:53;;;;;;;109.22;6.90;;;;;;;;;;4988526;28;20042;-59
2023/03/28 04:33:23;;;;;;;124.78;8.10;;;;;;;;;;4988321;28;20026;-59
2023/03/28 04:35:55;;;;;;;93.13;7.80;;;;;;;;;;4989934;28;20041;-58
2023/03/28 04:38:22;;;;;;;137.70;8.55;;;;;;;;;;4990128;28;20026;-60
2023/03/28 04:40:48;;;;;;;100.55;7.38;;;;;;;;;;4989594;28;20836;-59
2023/03/28 04:43:14;;;;;;;106.70;8.35;;;;;;;;;;4989172;28;20026;-58
2023/03/28 04:45:39;;;;;;;128.93;8.57;;;;;;;;;;4987717;28;20065;-59
2023/03/28 04:48:05;;;;;;;110.78;8.40;;;;;;;;;;4986951;28;20025;-58
2023/03/28 04:50:30;;;;;;;100.40;7.55;;;;;;;;;;4987897;28;20581;-59
2023/03/28 04:52:56;;;;;;;104.63;7.70;;;;;;;;;;4987354;28;20488;-59
2023/03/28 04:55:21;;;;;;;104.68;7.13;;;;;;;;;;4986770;28;20064;-57
2023/03/28 04:57:46;;;;;;;130.05;7.22;;;;;;;;;;4987954;28;20108;-58
2023/03/28 05:00:12;;;;;;;117.55;8.95;;;;;;;;;;4989301;28;20034;-59
2023/03/28 05:02:37;;;;;;;105.57;8.57;;;;;;;;;;4986487;28;20030;-60
2023/03/28 05:05:02;;;;;;;119.53;8.45;;;;;;;;;;4988952;28;20021;-58
2023/03/28 05:07:28;;;;;;;116.10;7.18;;;;;;;;;;4987541;28;20068;-59
2023/03/28 05:09:53;;;;;;;116.43;7.68;;;;;;;;;;4987011;28;20506;-59
2023/03/28 05:12:18;;;;;;;137.52;12.98;;;;;;;;;;4986350;28;20041;-57
2023/03/28 05:14:44;;;;;;;125.57;10.57;;;;;;;;;;4986211;28;20783;-58
2023/03/28 05:17:09;;;;;;;144.38;11.15;;;;;;;;;;4986152;28;20412;-59
2023/03/28 05:19:34;;;;;;;93.55;6.15;;;;;;;;;;4987230;28;20419;-58
2023/03/28 05:22:00;;;;;;;102.97;7.53;;;;;;;;;;4986423;28;20139;-58
2023/03/28 05:24:25;;;;;;;136.45;7.35;;;;;;;;;;4987447;28;20034;-59
2023/03/28 05:26:51;;;;;;;103.05;8.40;;;;;;;;;;4986700;28;20038;-60
2023/03/28 05:29:16;;;;;;;101.10;7.07;;;;;;;;;;4988019;28;20114;-60
2023/03/28 05:31:41;;;;;;;135.45;9.85;;;;;;;;;;4986306;28;20026;-60
2023/03/28 05:34:06;;;;;;;91.32;7.53;;;;;;;;;;4988210;28;20093;-58
2023/03/28 05:36:32;;;;;;;106.00;8.07;;;;;;;;;;4986550;28;20864;-58
2023/03/28 05:38:57;;;;;;;103.22;8.15;;;;;;;;;;4988081;28;20611;-58
2023/03/28 05:41:22;;;;;;;127.00;8.73;;;;;;;;;;4987502;28;20441;-58
2023/03/28 05:43:47;;;;;;;117.97;8.48;;;;;;;;;;4985936;28;20045;-59
2023/03/28 05:46:12;;;;;;;119.72;7.38;;;;;;;;;;4985861;28;20026;-59
2023/03/28 05:48:38;;;;;;;101.20;7.15;;;;;;;;;;4988267;28;20032;-59
2023/03/28 05:51:03;;;;;;;113.22;7.10;;;;;;;;;;4986237;28;20884;-60
2023/03/28 05:53:29;;;;;;;101.53;7.75;;;;;;;;;;4986533;28;20436;-59
2023/03/28 05:55:54;;;;;;;125.70;7.43;;;;;;;;;;4986886;28;20053;-59
2023/03/28 05:58:19;;;;;;;130.45;7.18;;;;;;;;;;4991803;28;20533;-58
2023/03/28 06:00:45;;;;;;;77.40;6.97;;;;;;;;;;4991750;28;20152;-57
2023/03/28 06:03:10;;;;;;;100.63;6.15;;;;;;;;;;4992417;28;20029;-59
2023/03/28 06:05:36;;;;;;;109.95;7.53;;;;;;;;;;4991427;28;20038;-58
2023/03/28 06:08:01;;;;;;;102.82;6.68;;;;;;;;;;4990665;28;20108;-58
2023/03/28 06:10:26;;;;;;;121.72;8.30;;;;;;;;;;4990001;28;20057;-59
2023/03/28 06:12:52;;;;;;;104.32;7.38;;;;;;;;;;4991498;28;20022;-59
2023/03/28 06:15:17;;;;;;;84.80;5.97;;;;;;;;;;4990546;28;20026;-59
2023/03/28 06:17:42;;;;;;;132.88;8.13;;;;;;;;;;4990807;28;20037;-58
2023/03/28 06:20:08;;;;;;;104.18;8.18;;;;;;;;;;4989481;28;20173;-58
2023/03/28 06:22:35;;;;;;;101.43;6.15;;;;;;;;;;4991048;28;20815;-59
2023/03/28 06:25:00;;;;;;;129.57;8.25;;;;;;;;;;4988955;28;20026;-59
2023/03/28 06:27:26;;;;;;;100.25;5.15;;;;;;;;;;4989742;28;20026;-60
2023/03/28 06:29:51;;;;;;;94.43;4.88;;;;;;;;;;4990413;28;20025;-58
2023/03/28 06:32:18;;;;;;;101.95;5.45;;;;;;;;;;4991008;28;20058;-60
2023/03/28 06:34:43;;;;;;;84.50;6.93;;;;;;;;;;4992401;28;20035;-58
2023/03/28 06:37:08;;;;;;;111.43;6.82;;;;;;;;;;4995864;28;20044;-58
2023/03/28 06:39:33;;;;;;;102.78;7.20;;;;;;;;;;4992903;28;20029;-58
2023/03/28 06:42:02;;;;;;;115.28;8.25;;;;;;;;;;4990143;28;20039;-60
2023/03/28 06:44:27;;;;;;;115.20;7.00;;;;;;;;;;4990422;28;20037;-58
2023/03/28 06:46:52;;;;;;;85.72;7.15;;;;;;;;;;4989887;28;20038;-59
2023/03/28 06:49:17;;;;;;;129.50;8.27;;;;;;;;;;4989711;28;20748;-58
2023/03/28 06:51:43;;;;;;;98.47;7.40;;;;;;;;;;4989996;28;20034;-59
2023/03/28 06:54:08;;;;;;;103.10;6.93;;;;;;;;;;4990461;28;20022;-58
2023/03/28 06:56:33;;;;;;;127.13;7.43;;;;;;;;;;4989640;28;20149;-57
2023/03/28 06:58:59;;;;;;;84.75;4.93;;;;;;;;;;4992155;28;20265;-57
2023/03/28 07:01:24;;;;;;;145.45;8.70;;;;;;;;;;4989334;28;20551;-58
2023/03/28 07:03:49;;;;;;;115.22;6.80;;;;;;;;;;4988249;28;20029;-58
2023/03/28 07:06:14;;;;;;;98.35;6.97;;;;;;;;;;4989677;28;20030;-57
2023/03/28 07:08:42;;;;;;;100.90;5.57;;;;;;;;;;4987764;28;20369;-58
2023/03/28 07:11:08;;;;;;;103.68;7.20;;;;;;;;;;4989356;28;20261;-58
2023/03/28 07:13:33;;;;;;;88.33;6.40;;;;;;;;;;4989141;28;20014;-59
2023/03/28 07:16:10;;;;;;;107.97;6.70;;;;;;;;;;4989905;28;20266;-57
2023/03/28 07:18:35;;;;;;;84.97;5.80;;;;;;;;;;4989452;28;20433;-58
2023/03/28 07:21:11;;;;;;;92.90;5.65;;;;;;;;;;4990418;28;20034;-59
2023/03/28 07:23:38;;;;;;;96.25;5.85;;;;;;;;;;4989334;28;20037;-58
2023/03/28 07:26:04;;;;;;;97.13;6.47;;;;;;;;;;4989136;28;20731;-60
2023/03/28 07:28:32;;;;;;;105.82;5.88;;;;;;;;;;4989782;28;20057;-58
2023/03/28 07:30:59;;;;;;;101.72;7.10;;;;;;;;;;4991741;28;20038;-59
2023/03/28 07:33:25;;;;;;;107.20;6.07;;;;;;;;;;4990467;28;20011;-58
2023/03/28 07:35:51;;;;;;;105.85;6.53;;;;;;;;;;4988846;28;20030;-58
2023/03/28 07:38:16;;;;;;;78.32;4.85;;;;;;;;;;4988712;28;20034;-59
2023/03/28 07:40:42;;;;;;;110.28;6.90;;;;;;;;;;4988214;28;20067;-59
2023/03/28 07:43:07;;;;;;;87.60;5.35;;;;;;;;;;4989303;28;20050;-58
2023/03/28 07:45:32;;;;;;;110.20;6.35;;;;;;;;;;4988231;28;20042;-59
2023/03/28 07:47:57;;;;;;;142.30;7.60;;;;;;;;;;4988091;28;20132;-58
2023/03/28 07:50:23;;;;;;;105.18;6.53;;;;;;;;;;4986579;28;21073;-57
2023/03/28 07:52:48;;;;;;;89.25;5.70;;;;;;;;;;4989810;28;20011;-58
2023/03/28 07:55:13;;;;;;;94.80;5.93;;;;;;;;;;4986822;28;20033;-58
2023/03/28 07:57:39;;;;;;;99.90;5.00;;;;;;;;;;4991255;28;20492;-58
2023/03/28 08:00:07;;;;;;;110.20;5.85;;;;;;;;;;4988619;28;20076;-58
2023/03/28 08:02:33;;;;;;;97.22;5.40;;;;;;;;;;4987893;28;20160;-59
2023/03/28 08:04:58;;;;;;;105.53;6.83;;;;;;;;;;4990532;28;20132;-58
2023/03/28 08:07:24;;;;;;;127.60;6.13;;;;;;;;;;4987867;28;20399;-58
2023/03/28 08:09:49;;;;;;;104.05;5.20;;;;;;;;;;4988730;28;20060;-59
2023/03/28 08:12:15;;;;;;;114.63;6.38;;;;;;;;;;4988380;28;20035;-58
2023/03/28 08:14:40;;;;;;;119.60;6.40;;;;;;;;;;4989750;28;20014;-58
2023/03/28 08:17:05;;;;;;;97.10;5.97;;;;;;;;;;4988016;28;20069;-59
2023/03/28 08:19:30;;;;;;;92.13;5.57;;;;;;;;;;4986770;28;20293;-60
2023/03/28 08:21:57;;;;;;;119.47;6.10;;;;;;;;;;4987033;28;20364;-60
2023/03/28 08:24:22;;;;;;;102.72;5.82;;;;;;;;;;4989077;28;20121;-59
2023/03/28 08:26:48;;;;;;;94.50;6.10;;;;;;;;;;4988760;28;20038;-58
2023/03/28 08:29:14;;;;;;;73.15;4.28;;;;;;;;;;4989215;28;20029;-59
2023/03/28 08:31:39;;;;;;;111.55;6.07;;;;;;;;;;4988923;28;20031;-59
2023/03/28 08:34:04;;;;;;;107.18;6.07;;;;;;;;;;4988763;28;20034;-57
2023/03/28 08:36:30;;;;;;;116.90;5.93;;;;;;;;;;4988268;28;20046;-58
2023/03/28 08:38:59;;;;;;;99.97;5.05;;;;;;;;;;4990083;28;20284;-58
2023/03/28 08:41:43;;;;;;;151.35;7.65;;;;;;;;;;4986232;28;20044;-58
2023/03/28 08:44:28;;;;;;;88.63;5.30;;;;;;;;;;4987894;28;20081;-57
2023/03/28 08:46:56;;;;;;;98.18;5.32;;;;;;;;;;4982435;28;20038;-57
2023/03/28 08:49:22;;;;;;;99.15;5.22;;;;;;;;;;4987891;28;20027;-57
2023/03/28 08:52:06;;;;;;;109.88;6.03;;;;;;;;;;4988088;28;20030;-57
2023/03/28 08:54:50;;;;;;;67.72;3.78;;;;;;;;;;4985816;28;20215;-58
2023/03/28 08:57:18;;;;;;;86.97;4.78;;;;;;;;;;4985886;28;20122;-57
2023/03/28 08:59:52;;;;;;;86.05;4.75;;;;;;;;;;4987548;28;20037;-59
2023/03/28 09:02:18;;;;;;;101.68;5.60;;;;;;;;;;4984157;28;20034;-57
2023/03/28 09:04:43;;;;;;;90.68;5.18;;;;;;;;;;4986751;28;20073;-57
2023/03/28 09:07:16;;;;;;;118.85;6.22;;;;;;;;;;4985961;28;20046;-57
2023/03/28 09:09:41;;;;;;;79.25;4.45;;;;;;;;;;4987022;28;20041;-58
2023/03/28 09:12:25;;;;;;;133.13;6.63;;;;;;;;;;4987552;28;20081;-58
2023/03/28 09:14:56;;;;;;;90.75;4.82;;;;;;;;;;4987326;28;20257;-57
2023/03/28 09:17:21;;;;;;;108.72;5.65;;;;;;;;;;4985865;28;20045;-59
2023/03/28 09:19:58;;;;;;;93.37;5.10;;;;;;;;;;4988031;28;20038;-59
2023/03/28 09:22:37;;;;;;;132.07;6.63;;;;;;;;;;4986280;28;20092;-56
2023/03/28 09:25:07;;;;;;;95.97;5.22;;;;;;;;;;4987166;28;20029;-57
2023/03/28 09:27:46;;;;;;;109.22;5.63;;;;;;;;;;4986399;28;20317;-58
2023/03/28 09:30:19;;;;;;;90.07;4.57;;;;;;;;;;4987376;28;20104;-57
2023/03/28 09:32:45;;;;;;;111.35;5.50;;;;;;;;;;4986693;28;20019;-59
2023/03/28 09:35:15;;;;;;;90.15;4.85;;;;;;;;;;4987404;28;20025;-58
2023/03/28 09:37:42;;;;;;;106.10;5.53;;;;;;;;;;4987671;28;20026;-58
2023/03/28 09:40:13;;;;;;;86.05;4.68;;;;;;;;;;4986604;28;20579;-58
2023/03/28 09:42:52;;;;;;;96.38;4.72;;;;;;;;;;4987452;28;20149;-57
2023/03/28 09:45:38;;;;;;;92.05;4.72;;;;;;;;;;4988144;28;20033;-58
2023/03/28 09:48:16;;;;;;;110.47;5.50;;;;;;;;;;4987494;28;20076;-57
2023/03/28 09:50:41;;;;;;;84.57;4.25;;;;;;;;;;4988089;28;20101;-58
2023/03/28 09:53:16;;;;;;;108.55;5.65;;;;;;;;;;4985278;28;20040;-58
2023/03/28 09:55:41;;;;;;;92.40;5.20;;;;;;;;;;4987988;28;20928;-56
2023/03/28 09:58:08;;;;;;;111.20;5.55;;;;;;;;;;4988365;28;20040;-57
2023/03/28 10:00:35;;;;;;;97.00;4.75;;;;;;;;;;4985178;28;20132;-58
2023/03/28 10:03:00;;;;;;;97.88;5.00;;;;;;;;;;4985151;28;20120;-59
2023/03/28 10:05:34;;;;;;;115.90;5.78;;;;;;;;;;4987990;28;20568;-59
2023/03/28 10:08:02;;;;;;;92.63;4.95;;;;;;;;;;4985012;28;20061;-57
2023/03/28 10:10:28;;;;;;;126.22;6.43;;;;;;;;;;4985393;28;21055;-57
2023/03/28 10:13:00;;;;;;;88.20;4.70;;;;;;;;;;4985887;28;20049;-57
2023/03/28 10:15:32;;;;;;;105.10;5.47;;;;;;;;;;4985894;28;20696;-60
2023/03/28 10:18:00;;;;;;;115.97;5.65;;;;;;;;;;4987081;28;20499;-60
2023/03/28 10:20:26;;;;;;;119.15;6.18;;;;;;;;;;4985692;28;20026;-59
2023/03/28 10:22:55;;;;;;;117.22;5.68;;;;;;;;;;4985273;28;20030;-58
2023/03/28 10:25:22;;;;;;;108.28;5.43;;;;;;;;;;4986727;28;20018;-58
2023/03/28 10:27:47;;;;;;;108.15;5.25;;;;;;;;;;4987107;28;20057;-58
2023/03/28 10:30:13;;;;;;;95.68;4.88;;;;;;;;;;4986310;28;20053;-58
2023/03/28 10:32:38;;;;;;;82.72;4.43;;;;;;;;;;4987098;28;20089;-58
2023/03/28 10:35:07;;;;;;;94.30;4.80;;;;;;;;;;4985455;28;20034;-57
2023/03/28 10:37:33;;;;;;;82.85;4.28;;;;;;;;;;4988372;28;20531;-57
2023/03/28 10:39:58;;;;;;;99.35;4.93;;;;;;;;;;4986109;28;20386;-58
2023/03/28 10:42:24;;;;;;;91.00;4.60;;;;;;;;;;4986314;28;20080;-56
2023/03/28 10:44:57;;;;;;;92.55;4.78;;;;;;;;;;4988854;28;20619;-56
2023/03/28 10:47:23;;;;;;;112.10;5.88;;;;;;;;;;4990444;28;20583;-58
2023/03/28 10:49:50;;;;;;;87.03;4.65;;;;;;;;;;4989360;28;20018;-56
2023/03/28 10:52:21;;;;;;;83.03;4.55;;;;;;;;;;4989356;28;20524;-56
2023/03/28 10:54:46;;;;;;;90.38;4.88;;;;;;;;;;4990431;28;20022;-58
2023/03/28 10:57:18;;;;;;;89.77;4.57;;;;;;;;;;4988299;28;20040;-58
2023/03/28 10:59:48;;;;;;;100.45;5.07;;;;;;;;;;4988600;28;20058;-57
2023/03/28 11:02:16;;;;;;;83.65;4.45;;;;;;;;;;4989663;28;20550;-55
2023/03/28 11:05:00;;;;;;;106.07;5.10;;;;;;;;;;4989857;28;20013;-60
2023/03/28 11:07:25;;;;;;;110.65;5.35;;;;;;;;;;4988379;28;20038;-57
2023/03/28 11:09:55;;;;;;;97.30;4.97;;;;;;;;;;4989538;28;20520;-57
2023/03/28 11:12:50;;;;;;;83.55;4.43;;;;;;;;;;4989706;28;20269;-58
2023/03/28 11:15:18;;;;;;;75.43;4.32;;;;;;;;;;4985164;28;20275;-56
2023/03/28 11:17:46;;;;;;;92.00;4.93;;;;;;;;;;4989787;28;20032;-57
2023/03/28 11:20:18;;;;;;;121.20;5.75;;;;;;;;;;4988045;28;20488;-56
2023/03/28 11:22:43;;;;;;;92.20;5.07;;;;;;;;;;4988894;28;20044;-57
2023/03/28 11:25:21;;;;;;;100.73;5.67;;;;;;;;;;4987852;28;20026;-57
2023/03/28 11:28:09;;;;;;;77.90;4.40;;;;;;;;;;4988956;28;20720;-59
2023/03/28 11:30:35;;;;;;;101.68;5.32;;;;;;;;;;4988401;28;20065;-58
2023/03/28 11:33:15;;;;;;;95.25;5.28;;;;;;;;;;4988547;28;20042;-57
2023/03/28 11:35:46;;;;;;;91.55;5.13;;;;;;;;;;4988405;28;20058;-57
2023/03/28 11:38:11;;;;;;;82.28;4.60;;;;;;;;;;4988941;28;20037;-57
2023/03/28 11:40:39;;;;;;;114.77;6.07;;;;;;;;;;4986373;28;20038;-58
2023/03/28 11:43:05;;;;;;;63.45;3.92;;;;;;;;;;4989687;28;20645;-57
2023/03/28 11:45:33;;;;;;;88.93;4.80;;;;;;;;;;4988504;28;20042;-56
2023/03/28 11:48:04;;;;;;;98.07;5.25;;;;;;;;;;4989834;28;20022;-58
2023/03/28 11:50:38;;;;;;;109.38;5.30;;;;;;;;;;4989421;28;20030;-58
2023/03/28 11:53:10;;;;;;;122.75;6.20;;;;;;;;;;4987959;28;20030;-57
2023/03/28 11:55:40;;;;;;;68.78;3.55;;;;;;;;;;4986142;28;20048;-57
2023/03/28 11:58:17;;;;;;;100.38;5.38;;;;;;;;;;4988742;28;20030;-56
2023/03/28 12:01:03;;;;;;;96.63;5.10;;;;;;;;;;4988400;28;20042;-58
2023/03/28 12:03:47;;;;;;;106.20;5.57;;;;;;;;;;4985885;28;20085;-57
2023/03/28 12:06:33;;;;;;;116.90;5.55;;;;;;;;;;4986141;28;20049;-56
2023/03/28 12:09:01;;;;;;;98.20;5.35;;;;;;;;;;4987469;28;20023;-60
2023/03/28 12:11:33;;;;;;;145.65;7.15;;;;;;;;;;4987982;28;20034;-57
2023/03/28 12:14:03;;;;;;;106.47;5.40;;;;;;;;;;4988193;28;20034;-58
2023/03/28 12:16:37;;;;;;;119.97;6.00;;;;;;;;;;4988107;28;20034;-56
2023/03/28 12:19:04;;;;;;;117.32;5.90;;;;;;;;;;4989356;28;20508;-56
2023/03/28 12:21:35;;;;;;;147.75;7.05;;;;;;;;;;4987204;28;20607;-55
2023/03/28 12:24:07;;;;;;;123.88;6.03;;;;;;;;;;4986965;28;20037;-57
2023/03/28 12:26:35;;;;;;;104.53;5.80;;;;;;;;;;4986780;28;20038;-56
2023/03/28 12:29:20;;;;;;;90.30;4.63;;;;;;;;;;4987765;28;20714;-56
2023/03/28 12:31:49;;;;;;;119.13;6.05;;;;;;;;;;4988935;28;20030;-58
2023/03/28 12:34:20;;;;;;;77.72;4.85;;;;;;;;;;4986888;28;20123;-58
2023/03/28 12:36:47;;;;;;;120.45;6.05;;;;;;;;;;4988077;28;20496;-58
2023/03/28 12:39:33;;;;;;;85.78;4.65;;;;;;;;;;4988219;28;20026;-58
2023/03/28 12:41:59;;;;;;;108.10;5.50;;;;;;;;;;4986945;28;20474;-59
2023/03/28 12:44:28;;;;;;;116.82;5.97;;;;;;;;;;4989428;28;20125;-57
2023/03/28 12:46:59;;;;;;;77.30;4.63;;;;;;;;;;4987634;28;20466;-58
2023/03/28 12:49:27;;;;;;;103.77;5.67;;;;;;;;;;4989401;28;20029;-58
2023/03/28 12:51:55;;;;;;;86.45;4.82;;;;;;;;;;4987990;28;20029;-57
2023/03/28 12:54:28;;;;;;;123.70;6.00;;;;;;;;;;4987414;28;20559;-57
2023/03/28 12:56:53;;;;;;;;;;;;;;;;;;4986560;28;20034;-57
2023/03/28 12:59:36;;;;;;;127.60;6.60;;;;;;;;;;4987169;28;19920;-56
2023/03/28 13:02:08;;;;;;;79.47;4.50;;;;;;;;;;4984391;28;20096;-58
2023/03/28 13:04:42;;;;;;;93.72;5.22;;;;;;;;;;4988858;28;20045;-58
2023/03/28 13:07:18;;;;;;;86.50;4.43;;;;;;;;;;4986191;28;20062;-56
2023/03/28 13:10:10;;;;;;;100.07;6.15;;;;;;;;;;4987717;28;20018;-57
2023/03/28 13:12:55;;;;;;;72.20;4.47;;;;;;;;;;4985841;28;20595;-59
2023/03/28 13:15:26;;;;;;;91.65;5.47;;;;;;;;;;4986349;28;20097;-57
2023/03/28 13:18:10;;;;;;;108.88;5.82;;;;;;;;;;4985848;28;20405;-58
2023/03/28 13:20:42;;;;;;;87.47;4.78;;;;;;;;;;4985030;28;20033;-59
2023/03/28 13:23:07;;;;;;;83.40;4.72;;;;;;;;;;4988059;28;20116;-56
2023/03/28 13:25:34;;;;;;;74.38;4.45;;;;;;;;;;4988766;28;20120;-57
2023/03/28 13:28:11;;;;;;;103.45;5.50;;;;;;;;;;4988374;28;20064;-59
2023/03/28 13:30:39;;;;;;;88.00;4.75;;;;;;;;;;4989172;28;20030;-57
2023/03/28 13:33:13;;;;;;;95.32;5.40;;;;;;;;;;4987467;28;20830;-58
2023/03/28 13:35:41;;;;;;;94.85;4.90;;;;;;;;;;4988371;28;20069;-57
2023/03/28 13:38:23;;;;;;;85.35;4.97;;;;;;;;;;4988151;28;20424;-57
2023/03/28 13:41:05;;;;;;;96.45;5.13;;;;;;;;;;4985883;28;20036;-58
2023/03/28 13:43:49;;;;;;;103.75;5.60;;;;;;;;;;4987500;28;20026;-56
2023/03/28 13:46:18;;;;;;;89.45;4.75;;;;;;;;;;4988144;28;20452;-56
2023/03/28 13:48:44;;;;;;;99.78;5.47;;;;;;;;;;4987667;28;20038;-58
2023/03/28 13:51:14;;;;;;;95.20;5.18;;;;;;;;;;4987449;28;20030;-58
2023/03/28 13:53:39;;;;;;;106.65;5.70;;;;;;;;;;4984951;28;20495;-57
2023/03/28 13:56:06;;;;;;;110.53;5.90;;;;;;;;;;4985269;28;20038;-57
2023/03/28 13:58:31;;;;;;;89.30;5.28;;;;;;;;;;4986420;28;20041;-59
2023/03/28 14:01:14;;;;;;;96.70;5.18;;;;;;;;;;4985987;28;20031;-57
2023/03/28 14:03:40;;;;;;;75.28;4.30;;;;;;;;;;4987868;28;20058;-58
2023/03/28 14:06:19;;;;;;;83.38;4.85;;;;;;;;;;4987009;28;20045;-58
2023/03/28 14:08:44;;;;;;;98.22;5.43;;;;;;;;;;4989698;28;20026;-57
2023/03/28 14:11:10;;;;;;;125.97;6.50;;;;;;;;;;4988328;28;20399;-56
2023/03/28 14:13:36;;;;;;;76.82;4.38;;;;;;;;;;4988127;28;20033;-57
2023/03/28 14:16:04;;;;;;;91.80;4.93;;;;;;;;;;4988761;28;20027;-56
2023/03/28 14:18:32;;;;;;;82.70;4.55;;;;;;;;;;4988688;28;20053;-59
2023/03/28 14:20:59;;;;;;;97.13;5.50;;;;;;;;;;4992342;28;20649;-58
2023/03/28 14:23:25;;;;;;;106.60;5.28;;;;;;;;;;4991465;28;20101;-57
2023/03/28 14:25:50;;;;;;;81.17;4.50;;;;;;;;;;4992127;28;20154;-57
2023/03/28 14:28:15;;;;;;;107.50;5.55;;;;;;;;;;4991489;28;20273;-58
2023/03/28 14:30:41;;;;;;;82.27;4.93;;;;;;;;;;4991197;28;20272;-58
2023/03/28 14:33:09;;;;;;;78.95;4.90;;;;;;;;;;4991636;28;20256;-57